createdAt,value
2019-04-22T00:00:10.768Z,5.87
2019-04-22T00:02:43.523Z,6.80
2019-04-22T00:05:16.586Z,6.43
2019-04-22T00:08:06.823Z,6.23
2019-04-22T00:10:32.377Z,6.40
2019-04-22T00:13:00.062Z,6.07
2019-04-22T00:15:19.491Z,5.73
2019-04-22T00:18:03.743Z,5.97
2019-04-22T00:20:22.671Z,6.00
2019-04-22T00:22:51.878Z,5.80
2019-04-22T00:25:24.505Z,6.13
2019-04-22T00:27:51.089Z,5.77
2019-04-22T00:30:16.438Z,6.07
2019-04-22T00:32:42.118Z,6.07
2019-04-22T00:35:14.766Z,6.00
2019-04-22T00:37:43.854Z,6.20
2019-04-22T00:40:07.339Z,6.23
2019-04-22T00:42:39.166Z,5.50
2019-04-22T00:45:08.055Z,5.80
2019-04-22T00:47:34.947Z,5.83
2019-04-22T00:52:28.500Z,6.10
2019-04-22T00:54:59.517Z,6.30
2019-04-22T00:57:21.447Z,6.30
2019-04-22T00:59:55.409Z,6.30
2019-04-22T01:02:20.280Z,5.90
2019-04-22T01:04:48.904Z,6.93
2019-04-22T01:07:18.942Z,5.90
2019-04-22T01:09:49.356Z,5.60
2019-04-22T01:12:13.575Z,5.67
2019-04-22T01:14:41.352Z,6.00
2019-04-22T01:17:07.921Z,5.60
2019-04-22T01:19:43.866Z,6.23
2019-04-22T01:21:58.302Z,5.80
2019-04-22T01:24:31.081Z,6.00
2019-04-22T01:26:53.771Z,5.90
2019-04-22T01:29:16.144Z,6.00
2019-04-22T01:31:36.268Z,5.97
2019-04-22T01:34:16.195Z,6.03
2019-04-22T01:36:51.614Z,5.70
2019-04-22T01:39:23.212Z,5.97
2019-04-22T01:42:03.912Z,5.77
2019-04-22T01:46:50.845Z,6.00
2019-04-22T01:49:15.954Z,6.10
2019-04-22T01:51:54.291Z,6.00
2019-04-22T01:54:22.112Z,5.60
2019-04-22T01:56:44.965Z,5.90
2019-04-22T01:59:00.681Z,6.00
2019-04-22T02:01:41.628Z,5.70
2019-04-22T02:04:15.221Z,5.93
2019-04-22T02:06:35.093Z,6.20
2019-04-22T02:09:09.485Z,6.10
2019-04-22T02:11:37.296Z,5.73
2019-04-22T02:13:56.645Z,6.03
2019-04-22T02:16:32.335Z,5.87
2019-04-22T02:18:53.073Z,5.47
2019-04-22T02:21:15.274Z,5.53
2019-04-22T02:26:15.787Z,5.67
2019-04-22T02:28:42.727Z,5.70
2019-04-22T02:38:58.781Z,5.17
2019-04-22T02:48:53.354Z,5.20
2019-04-22T02:54:15.234Z,5.50
2019-04-22T02:58:44.946Z,5.30
2019-04-22T03:03:45.487Z,5.10
2019-04-22T03:06:05.326Z,5.40
2019-04-22T03:08:25.572Z,4.97
2019-04-22T03:10:56.507Z,5.13
2019-04-22T03:15:52.881Z,5.03
2019-04-22T03:18:19.562Z,5.30
2019-04-22T03:20:53.387Z,5.00
2019-04-22T03:23:31.774Z,5.60
2019-04-22T03:28:05.109Z,5.60
2019-04-22T03:36:58.102Z,5.77
2019-04-22T03:37:56.193Z,5.93
2019-04-22T03:43:13.656Z,5.57
2019-04-22T03:52:53.099Z,5.30
2019-04-22T04:02:54.205Z,5.10
2019-04-22T04:05:17.156Z,5.30
2019-04-22T04:12:42.095Z,5.20
2019-04-22T04:15:21.168Z,5.20
2019-04-22T04:25:10.024Z,4.50
2019-04-22T04:35:12.704Z,5.10
2019-04-22T04:37:32.151Z,4.80
2019-04-22T04:39:44.219Z,5.10
2019-04-22T04:42:32.938Z,5.10
2019-04-22T04:47:11.594Z,4.70
2019-04-22T04:49:36.684Z,4.67
2019-04-22T04:54:31.860Z,4.97
2019-04-22T04:57:14.601Z,5.27
2019-04-22T05:01:55.175Z,5.17
2019-04-22T05:04:26.398Z,5.10
2019-04-22T05:07:05.781Z,5.00
2019-04-22T05:11:54.057Z,5.70
2019-04-22T05:14:14.433Z,5.43
2019-04-22T05:16:44.637Z,6.70
2019-04-22T05:19:12.874Z,7.07
2019-04-22T05:21:36.331Z,7.20
2019-04-22T05:24:02.377Z,7.43
2019-04-22T05:26:30.972Z,7.87
2019-04-22T05:28:53.084Z,8.80
2019-04-22T05:31:24.372Z,9.13
2019-04-22T05:33:47.950Z,8.97
2019-04-22T05:36:25.990Z,7.97
2019-04-22T05:38:46.309Z,7.90
2019-04-22T05:43:40.825Z,8.03
2019-04-22T05:46:09.221Z,8.27
2019-04-22T05:48:41.523Z,8.30
2019-04-22T05:51:01.120Z,7.53
2019-04-22T05:53:37.206Z,7.53
2019-04-22T05:56:04.186Z,7.60
2019-04-22T05:58:32.925Z,7.60
2019-04-22T06:03:37.897Z,8.30
2019-04-22T06:06:07.825Z,7.57
2019-04-22T06:08:29.576Z,8.40
2019-04-22T06:11:04.316Z,7.87
2019-04-22T06:13:26.783Z,8.00
2019-04-22T06:15:52.920Z,8.00
2019-04-22T06:18:27.265Z,8.03
2019-04-22T06:21:09.019Z,7.30
2019-04-22T06:26:05.836Z,7.40
2019-04-22T06:28:28.836Z,7.37
2019-04-22T06:30:54.615Z,7.23
2019-04-22T06:33:20.216Z,7.03
2019-04-22T06:38:30.172Z,6.83
2019-04-22T06:43:08.827Z,7.20
2019-04-22T06:45:35.291Z,7.43
2019-04-22T06:48:17.903Z,6.90
2019-04-22T06:50:40.483Z,7.03
2019-04-22T06:53:02.971Z,8.03
2019-04-22T06:55:35.626Z,7.40
2019-04-22T06:58:00.375Z,7.60
2019-04-22T07:03:26.287Z,7.07
2019-04-22T07:05:25.223Z,7.43
2019-04-22T07:08:02.775Z,6.97
2019-04-22T07:10:28.631Z,6.80
2019-04-22T07:12:48.727Z,6.63
2019-04-22T07:15:31.687Z,6.47
2019-04-22T07:20:10.981Z,7.00
2019-04-22T07:22:51.255Z,6.80
2019-04-22T07:25:06.235Z,6.80
2019-04-22T07:27:30.123Z,7.20
2019-04-22T07:30:09.474Z,7.17
2019-04-22T07:32:54.954Z,8.03
2019-04-22T07:35:02.024Z,7.17
2019-04-22T07:37:39.104Z,6.77
2019-04-22T07:39:50.128Z,6.70
2019-04-22T07:42:28.218Z,7.30
2019-04-22T07:44:54.788Z,7.07
2019-04-22T07:47:25.750Z,7.67
2019-04-22T07:52:18.811Z,7.13
2019-04-22T07:54:46.722Z,7.40
2019-04-22T07:57:22.739Z,7.60
2019-04-22T07:59:40.355Z,7.53
2019-04-22T08:04:56.019Z,6.80
2019-04-22T08:07:05.450Z,7.87
2019-04-22T08:09:39.775Z,6.93
2019-04-22T08:14:28.309Z,7.60
2019-04-22T08:17:01.566Z,7.43
2019-04-22T08:19:33.145Z,8.03
2019-04-22T08:21:52.130Z,7.40
2019-04-22T08:24:35.713Z,7.67
2019-04-22T08:26:47.643Z,7.30
2019-04-22T08:29:20.193Z,7.90
2019-04-22T08:31:48.695Z,7.47
2019-04-22T08:34:14.188Z,7.70
2019-04-22T08:36:55.436Z,8.17
2019-04-22T08:39:13.651Z,8.27
2019-04-22T08:41:43.823Z,9.57
2019-04-22T08:44:07.667Z,8.30
2019-04-22T08:46:53.948Z,8.10
2019-04-22T08:48:59.005Z,7.80
2019-04-22T08:51:31.022Z,7.73
2019-04-22T08:54:13.703Z,8.10
2019-04-22T08:56:32.434Z,8.53
2019-04-22T08:59:02.046Z,8.00
2019-04-22T09:01:23.397Z,9.30
2019-04-22T09:03:52.475Z,8.30
2019-04-22T09:06:36.869Z,7.97
2019-04-22T09:08:50.408Z,8.60
2019-04-22T09:11:20.064Z,8.10
2019-04-22T09:13:43.337Z,8.53
2019-04-22T09:16:14.529Z,8.60
2019-04-22T09:18:42.219Z,8.60
2019-04-22T09:21:15.120Z,8.73
2019-04-22T09:23:37.123Z,8.90
2019-04-22T09:26:03.841Z,8.77
2019-04-22T09:28:33.246Z,9.30
2019-04-22T09:31:02.036Z,9.30
2019-04-22T09:33:27.637Z,9.27
2019-04-22T09:38:32.847Z,9.47
2019-04-22T09:41:05.416Z,8.93
2019-04-22T09:43:17.034Z,9.03
2019-04-22T09:45:47.712Z,8.90
2019-04-22T09:48:18.804Z,9.37
2019-04-22T09:50:43.182Z,8.87
2019-04-22T09:53:08.095Z,8.60
2019-04-22T09:55:34.558Z,8.70
2019-04-22T09:58:02.788Z,8.60
2019-04-22T10:00:39.504Z,8.20
2019-04-22T10:03:10.030Z,7.90
2019-04-22T10:05:32.871Z,7.43
2019-04-22T10:08:14.554Z,7.97
2019-04-22T10:10:26.846Z,7.60
2019-04-22T10:12:57.805Z,7.73
2019-04-22T10:15:26.749Z,7.07
2019-04-22T10:17:57.993Z,6.70
2019-04-22T10:20:28.178Z,7.07
2019-04-22T10:22:53.216Z,6.87
2019-04-22T10:25:16.334Z,7.63
2019-04-22T10:27:51.389Z,7.57
2019-04-22T10:30:32.148Z,7.70
2019-04-22T10:32:43.027Z,7.60
2019-04-22T10:34:59.103Z,8.80
2019-04-22T10:37:21.816Z,8.83
2019-04-22T10:39:56.221Z,8.33
2019-04-22T10:42:17.405Z,8.37
2019-04-22T10:44:45.227Z,8.30
2019-04-22T10:47:11.918Z,8.90
2019-04-22T10:49:38.434Z,8.40
2019-04-22T10:52:04.645Z,8.33
2019-04-22T10:54:31.485Z,8.33
2019-04-22T10:56:59.027Z,8.70
2019-04-22T10:59:24.952Z,8.87
2019-04-22T11:01:50.951Z,8.50
2019-04-22T11:04:17.550Z,9.13
2019-04-22T11:06:52.154Z,8.27
2019-04-22T11:09:12.488Z,9.03
2019-04-22T11:11:48.768Z,8.57
2019-04-22T11:14:07.476Z,8.23
2019-04-22T11:16:35.177Z,7.70
2019-04-22T11:19:01.478Z,8.40
2019-04-22T11:21:27.557Z,8.37
2019-04-22T11:23:54.571Z,8.07
2019-04-22T11:26:21.883Z,8.37
2019-04-22T11:28:49.328Z,8.40
2019-04-22T11:31:16.542Z,8.67
2019-04-22T11:33:42.874Z,8.90
2019-04-22T11:36:10.123Z,8.00
2019-04-22T11:38:40.381Z,7.90
2019-04-22T11:41:05.423Z,8.60
2019-04-22T11:43:32.430Z,7.37
2019-04-22T11:45:59.568Z,8.30
2019-04-22T11:48:27.034Z,8.67
2019-04-22T11:50:53.739Z,8.83
2019-04-22T11:53:20.693Z,8.80
2019-04-22T11:55:46.837Z,8.10
2019-04-22T11:58:12.957Z,8.30
2019-04-22T12:00:40.934Z,9.43
2019-04-22T12:03:07.465Z,8.73
2019-04-22T12:05:34.299Z,9.90
2019-04-22T12:08:00.627Z,9.70
2019-04-22T12:10:35.702Z,9.40
2019-04-22T12:12:57.741Z,8.93
2019-04-22T12:15:24.689Z,10.30
2019-04-22T12:17:51.031Z,9.93
2019-04-22T12:20:18.396Z,9.60
2019-04-22T12:22:45.333Z,9.50
2019-04-22T12:25:17.930Z,9.50
2019-04-22T12:27:41.255Z,9.30
2019-04-22T12:30:12.345Z,8.60
2019-04-22T12:32:39.021Z,8.80
2019-04-22T12:35:07.198Z,9.13
2019-04-22T12:37:40.643Z,9.57
2019-04-22T12:40:04.271Z,8.57
2019-04-22T12:42:31.269Z,8.60
2019-04-22T12:44:58.327Z,9.40
2019-04-22T12:47:24.472Z,9.80
2019-04-22T12:49:59.802Z,8.93
2019-04-22T12:52:26.648Z,8.83
2019-04-22T12:54:46.929Z,8.07
2019-04-22T12:57:14.638Z,8.50
2019-04-22T12:59:41.802Z,8.00
2019-04-22T13:02:09.084Z,8.07
2019-04-22T13:04:36.251Z,8.23
2019-04-22T13:07:03.818Z,7.80
2019-04-22T13:09:29.823Z,8.10
2019-04-22T13:11:57.169Z,7.08
2019-04-22T13:14:23.488Z,7.37
2019-04-22T13:16:49.347Z,7.55
2019-04-22T13:19:18.649Z,7.50
2019-04-22T13:21:44.740Z,7.35
2019-04-22T13:24:11.021Z,7.40
2019-04-22T13:26:38.113Z,8.23
2019-04-22T13:29:05.207Z,8.13
2019-04-22T13:31:32.871Z,8.23
2019-04-22T13:34:01.682Z,7.80
2019-04-22T13:36:28.296Z,7.90
2019-04-22T13:38:55.237Z,8.13
2019-04-22T13:41:31.792Z,7.30
2019-04-22T13:43:49.320Z,6.87
2019-04-22T13:46:16.902Z,6.90
2019-04-22T13:49:08.716Z,6.92
2019-04-22T13:52:15.377Z,6.45
2019-04-22T13:56:23.793Z,6.90
2019-04-22T13:58:48.448Z,7.00
2019-04-22T14:01:05.180Z,6.72
2019-04-22T14:03:42.837Z,7.15
2019-04-22T14:06:09.135Z,7.05
2019-04-22T14:08:35.329Z,7.03
2019-04-22T14:11:14.903Z,7.37
2019-04-22T14:13:30.066Z,7.95
2019-04-22T14:15:56.993Z,8.20
2019-04-22T14:18:23.230Z,8.03
2019-04-22T14:20:49.286Z,7.67
2019-04-22T14:23:15.952Z,7.78
2019-04-22T14:25:43.094Z,7.30
2019-04-22T14:30:37.177Z,7.40
2019-04-22T14:33:04.997Z,7.10
2019-04-22T14:35:31.350Z,7.47
2019-04-22T14:37:58.312Z,6.97
2019-04-22T14:40:26.567Z,6.53
2019-04-22T14:43:17.618Z,6.33
2019-04-22T14:44:24.478Z,7.12
2019-04-22T14:45:58.712Z,6.92
2019-04-22T14:48:22.583Z,7.22
2019-04-22T14:50:42.240Z,7.08
2019-04-22T14:53:11.230Z,7.75
2019-04-22T14:55:22.831Z,8.05
2019-04-22T14:57:44.406Z,7.72
2019-04-22T15:00:15.853Z,7.25
2019-04-22T15:02:41.939Z,8.33
2019-04-22T15:05:08.214Z,8.03
2019-04-22T15:07:35.096Z,8.83
2019-04-22T15:10:01.985Z,8.63
2019-04-22T15:12:36.701Z,8.57
2019-04-22T15:14:57.573Z,8.03
2019-04-22T15:17:42.900Z,8.07
2019-04-22T15:20:11.938Z,8.40
2019-04-22T15:22:38.876Z,8.17
2019-04-22T15:25:05.850Z,7.90
2019-04-22T15:27:33.069Z,8.50
2019-04-22T15:29:59.296Z,8.40
2019-04-22T15:32:25.380Z,8.77
2019-04-22T15:34:51.317Z,8.33
2019-04-22T15:37:18.086Z,8.27
2019-04-22T15:39:45.665Z,9.07
2019-04-22T15:42:19.840Z,8.87
2019-04-22T15:44:39.968Z,9.03
2019-04-22T15:47:06.995Z,9.03
2019-04-22T15:49:34.029Z,8.40
2019-04-22T15:52:02.170Z,9.00
2019-04-22T15:54:28.073Z,8.07
2019-04-22T15:56:54.876Z,9.30
2019-04-22T15:59:41.679Z,8.20
2019-04-22T16:01:50.463Z,8.30
2019-04-22T16:04:16.983Z,8.63
2019-04-22T16:06:43.276Z,8.70
2019-04-22T16:09:11.112Z,8.90
2019-04-22T16:11:38.050Z,8.70
2019-04-22T16:14:04.346Z,9.33
2019-04-22T16:16:30.555Z,8.80
2019-04-22T16:18:56.482Z,9.23
2019-04-22T16:21:32.669Z,8.93
2019-04-22T16:24:04.532Z,8.20
2019-04-22T16:26:38.426Z,8.87
2019-04-22T16:29:05.311Z,8.27
2019-04-22T16:31:35.674Z,8.33
2019-04-22T16:34:02.652Z,8.30
2019-04-22T16:36:29.192Z,8.53
2019-04-22T16:38:57.009Z,8.03
2019-04-22T16:41:24.552Z,8.37
2019-04-22T16:43:50.842Z,7.93
2019-04-22T16:46:16.884Z,8.10
2019-04-22T16:48:43.394Z,8.00
2019-04-22T16:51:09.899Z,8.37
2019-04-22T16:53:37.047Z,8.47
2019-04-22T16:56:04.630Z,8.10
2019-04-22T16:58:30.864Z,7.40
2019-04-22T17:00:58.633Z,7.60
2019-04-22T17:03:26.853Z,8.10
2019-04-22T17:06:10.028Z,7.20
2019-04-22T17:08:37.005Z,7.83
2019-04-22T17:11:04.175Z,7.60
2019-04-22T17:13:32.807Z,7.60
2019-04-22T17:16:00.861Z,7.40
2019-04-22T17:18:27.359Z,7.20
2019-04-22T17:20:54.888Z,9.30
2019-04-22T17:23:20.959Z,7.10
2019-04-22T17:25:48.217Z,8.07
2019-04-22T17:28:15.398Z,7.43
2019-04-22T17:30:41.624Z,7.87
2019-04-22T17:33:08.442Z,7.70
2019-04-22T17:35:36.044Z,7.67
2019-04-22T17:38:12.569Z,7.40
2019-04-22T17:40:49.461Z,7.03
2019-04-22T17:43:34.272Z,7.30
2019-04-22T17:45:57.270Z,7.77
2019-04-22T17:48:30.455Z,7.50
2019-04-22T17:51:10.600Z,8.20
2019-04-22T17:53:34.807Z,7.80
2019-04-22T17:56:02.361Z,8.10
2019-04-22T17:58:29.029Z,8.03
2019-04-22T18:00:50.714Z,9.10
2019-04-22T18:03:13.105Z,9.13
2019-04-22T18:05:38.431Z,9.50
2019-04-22T18:08:17.722Z,9.60
2019-04-22T18:10:44.048Z,9.33
2019-04-22T18:13:23.825Z,9.97
2019-04-22T18:15:43.534Z,10.20
2019-04-22T18:18:12.514Z,10.47
2019-04-22T18:20:29.302Z,9.20
2019-04-22T18:22:54.643Z,9.97
2019-04-22T18:25:29.572Z,9.90
2019-04-22T18:28:10.462Z,9.27
2019-04-22T18:30:20.362Z,9.87
2019-04-22T18:32:57.050Z,9.60
2019-04-22T18:35:26.545Z,9.70
2019-04-22T18:37:53.660Z,10.30
2019-04-22T18:40:24.039Z,9.13
2019-04-22T18:42:58.401Z,9.93
2019-04-22T18:47:48.815Z,9.13
2019-04-22T18:50:26.531Z,8.83
2019-04-22T18:52:59.234Z,8.80
2019-04-22T18:55:20.733Z,8.70
2019-04-22T18:58:02.794Z,9.30
2019-04-22T19:00:23.321Z,8.90
2019-04-22T19:02:55.831Z,9.70
2019-04-22T19:05:34.704Z,9.10
2019-04-22T19:08:12.657Z,8.50
2019-04-22T19:10:53.255Z,9.03
2019-04-22T19:13:34.804Z,8.37
2019-04-22T19:15:39.903Z,8.80
2019-04-22T19:18:10.545Z,8.83
2019-04-22T19:20:38.080Z,8.33
2019-04-22T19:23:04.179Z,8.43
2019-04-22T19:25:24.075Z,8.70
2019-04-22T19:28:01.447Z,9.40
2019-04-22T19:30:30.048Z,7.93
2019-04-22T19:32:58.600Z,8.10
2019-04-22T19:35:25.723Z,8.10
2019-04-22T19:37:50.811Z,8.73
2019-04-22T19:40:24.078Z,7.90
2019-04-22T19:42:57.484Z,7.80
2019-04-22T19:45:15.821Z,7.50
2019-04-22T19:47:53.533Z,7.83
2019-04-22T19:50:16.392Z,6.67
2019-04-22T19:52:39.814Z,7.20
2019-04-22T19:55:12.586Z,7.20
2019-04-22T19:57:33.998Z,7.57
2019-04-22T20:00:05.402Z,7.47
2019-04-22T20:02:41.124Z,7.13
2019-04-22T20:05:31.081Z,6.90
2019-04-22T20:07:46.958Z,7.20
2019-04-22T20:10:20.661Z,6.57
2019-04-22T20:12:49.316Z,6.60
2019-04-22T20:15:15.618Z,7.23
2019-04-22T20:18:07.567Z,6.90
2019-04-22T20:20:19.671Z,6.47
2019-04-22T20:22:37.504Z,6.53
2019-04-22T20:24:58.368Z,6.53
2019-04-22T20:27:36.404Z,6.17
2019-04-22T20:30:13.735Z,6.60
2019-04-22T20:32:32.663Z,6.97
2019-04-22T20:35:09.451Z,6.30
2019-04-22T20:37:37.065Z,6.27
2019-04-22T20:40:08.583Z,6.73
2019-04-22T20:42:45.032Z,6.63
2019-04-22T20:45:04.010Z,6.37
2019-04-22T20:47:29.312Z,6.80
2019-04-22T20:50:02.226Z,6.40
2019-04-22T20:52:34.226Z,6.23
2019-04-22T20:54:55.913Z,6.47
2019-04-22T20:57:31.957Z,7.07
2019-04-22T20:59:52.247Z,6.13
2019-04-22T21:02:17.955Z,6.20
2019-04-22T21:04:41.462Z,6.30
2019-04-22T21:07:13.805Z,6.10
2019-04-22T21:09:48.767Z,6.20
2019-04-22T21:12:13.944Z,6.30
2019-04-22T21:14:51.422Z,6.17
2019-04-22T21:17:13.622Z,5.80
2019-04-22T21:19:47.626Z,5.90
2019-04-22T21:22:07.966Z,5.90
2019-04-22T21:24:34.973Z,6.13
2019-04-22T21:27:10.252Z,5.70
2019-04-22T21:29:26.594Z,6.20
2019-04-22T21:32:06.223Z,5.80
2019-04-22T21:34:31.713Z,6.20
2019-04-22T21:37:02.596Z,5.67
2019-04-22T21:39:26.347Z,5.97
2019-04-22T21:41:54.405Z,6.13
2019-04-22T21:44:29.688Z,6.17
2019-04-22T21:46:57.703Z,5.77
2019-04-22T21:49:25.422Z,6.03
2019-04-22T21:51:56.811Z,5.90
2019-04-22T21:54:22.424Z,5.63
2019-04-22T21:57:07.435Z,6.10
2019-04-22T21:59:29.296Z,5.87
2019-04-22T22:01:56.877Z,6.13
2019-04-22T22:04:24.525Z,5.47
2019-04-22T22:06:41.238Z,5.77
2019-04-22T22:09:20.489Z,5.70
2019-04-22T22:11:49.145Z,6.10
2019-04-22T22:14:16.969Z,5.93
2019-04-22T22:16:38.416Z,5.93
2019-04-22T22:19:11.121Z,6.00
2019-04-22T22:21:49.657Z,5.90
2019-04-22T22:24:11.559Z,5.83
2019-04-22T22:26:39.925Z,5.80
2019-04-22T22:29:15.664Z,5.73
2019-04-22T22:31:36.767Z,6.20
2019-04-22T22:34:04.127Z,5.30
2019-04-22T22:36:26.752Z,5.97
2019-04-22T22:38:48.364Z,5.80
2019-04-22T22:41:03.705Z,6.33
2019-04-22T22:43:36.082Z,6.40
2019-04-22T22:46:12.054Z,6.43
2019-04-22T22:48:51.392Z,6.60
2019-04-22T22:51:15.642Z,6.87
2019-04-22T22:53:44.415Z,7.60
2019-04-22T22:56:13.680Z,6.83
2019-04-22T22:58:42.534Z,7.37
2019-04-22T23:01:06.351Z,7.47
2019-04-22T23:06:03.235Z,7.30
2019-04-22T23:08:31.956Z,7.23
2019-04-22T23:15:44.368Z,7.93
2019-04-22T23:18:01.675Z,9.27
2019-04-22T23:20:35.404Z,8.27
2019-04-22T23:23:23.909Z,7.90
2019-04-22T23:25:54.788Z,8.13
2019-04-22T23:28:16.117Z,8.03
2019-04-22T23:30:57.106Z,8.87
2019-04-22T23:33:37.469Z,8.97
2019-04-22T23:36:10.102Z,9.10
2019-04-22T23:38:47.654Z,9.13
2019-04-22T23:41:42.717Z,9.60
2019-04-22T23:44:06.993Z,10.07
2019-04-22T23:46:25.434Z,9.80
2019-04-22T23:48:51.558Z,10.23
2019-04-22T23:51:19.668Z,10.10
2019-04-22T23:54:05.832Z,9.37
2019-04-22T23:56:15.206Z,9.73
2019-04-22T23:59:02.660Z,9.50
